createdAt,value
2018-09-06T00:00:02.024Z,1008.32
2018-09-06T00:01:55.022Z,1008.35
2018-09-06T00:02:55.079Z,1008.32
2018-09-06T00:04:48.135Z,1008.38
2018-09-06T00:05:48.153Z,1008.33
2018-09-06T00:07:41.138Z,1008.34
2018-09-06T00:08:41.195Z,1008.33
2018-09-06T00:10:34.195Z,1008.27
2018-09-06T00:11:34.253Z,1008.26
2018-09-06T00:13:27.243Z,1008.24
2018-09-06T00:14:27.308Z,1008.23
2018-09-06T00:16:20.308Z,1008.20
2018-09-06T00:17:20.368Z,1008.22
2018-09-06T00:19:13.359Z,1008.20
2018-09-06T00:20:13.424Z,1008.18
2018-09-06T00:22:06.424Z,1008.19
2018-09-06T00:23:06.481Z,1008.16
2018-09-06T00:24:59.473Z,1008.17
2018-09-06T00:25:59.537Z,1008.14
2018-09-06T00:27:52.535Z,1008.10
2018-09-06T00:28:52.593Z,1008.09
2018-09-06T00:30:45.593Z,1008.04
2018-09-06T00:31:45.649Z,1008.07
2018-09-06T00:33:38.645Z,1008.00
2018-09-06T00:34:38.706Z,1008.03
2018-09-06T00:36:31.703Z,1008.00
2018-09-06T00:37:31.760Z,1007.98
2018-09-06T00:39:24.754Z,1008.00
2018-09-06T00:40:24.816Z,1007.95
2018-09-06T00:42:17.816Z,1007.97
2018-09-06T00:43:17.874Z,1007.96
2018-09-06T00:45:10.865Z,1007.97
2018-09-06T00:46:10.928Z,1007.91
2018-09-06T00:48:03.926Z,1007.95
2018-09-06T00:49:03.987Z,1007.94
2018-09-06T00:50:56.988Z,1007.93
2018-09-06T00:51:57.041Z,1007.93
2018-09-06T00:53:50.036Z,1007.90
2018-09-06T00:54:50.101Z,1007.88
2018-09-06T00:56:43.101Z,1007.89
2018-09-06T00:57:43.159Z,1007.91
2018-09-06T00:59:36.150Z,1007.89
2018-09-06T01:00:36.216Z,1007.87
2018-09-06T01:02:29.212Z,1007.86
2018-09-06T01:03:29.269Z,1007.86
2018-09-06T01:05:22.261Z,1007.87
2018-09-06T01:06:22.325Z,1007.85
2018-09-06T01:08:15.324Z,1007.84
2018-09-06T01:09:15.382Z,1007.87
2018-09-06T01:11:08.380Z,1007.80
2018-09-06T01:12:08.437Z,1007.79
2018-09-06T01:14:01.433Z,1007.74
2018-09-06T01:15:01.492Z,1007.76
2018-09-06T01:16:54.508Z,1007.74
2018-09-06T01:17:54.550Z,1007.77
2018-09-06T01:19:47.541Z,1007.76
2018-09-06T01:20:47.604Z,1007.75
2018-09-06T01:22:40.603Z,1007.71
2018-09-06T01:23:40.662Z,1007.71
2018-09-06T01:25:33.651Z,1007.68
2018-09-06T01:26:33.715Z,1007.63
2018-09-06T01:28:26.715Z,1007.63
2018-09-06T01:29:26.772Z,1007.64
2018-09-06T01:31:19.776Z,1007.66
2018-09-06T01:32:19.833Z,1007.66
2018-09-06T01:34:12.823Z,1007.66
2018-09-06T01:35:12.889Z,1007.61
2018-09-06T01:37:05.886Z,1007.61
2018-09-06T01:38:05.944Z,1007.56
2018-09-06T01:39:58.948Z,1007.59
2018-09-06T01:40:59.011Z,1007.54
2018-09-06T01:42:52.011Z,1007.56
2018-09-06T01:43:52.067Z,1007.58
2018-09-06T01:45:45.065Z,1007.60
2018-09-06T01:46:45.122Z,1007.60
2018-09-06T01:48:38.120Z,1007.61
2018-09-06T01:49:38.179Z,1007.64
2018-09-06T01:51:31.175Z,1007.67
2018-09-06T01:52:31.231Z,1007.66
2018-09-06T01:54:24.224Z,1007.67
2018-09-06T01:55:24.290Z,1007.66
2018-09-06T01:57:17.290Z,1007.67
2018-09-06T01:58:17.348Z,1007.66
2018-09-06T02:00:10.340Z,1007.65
2018-09-06T02:01:10.405Z,1007.63
2018-09-06T02:03:03.411Z,1007.64
2018-09-06T02:04:03.466Z,1007.64
2018-09-06T02:05:56.458Z,1007.61
2018-09-06T02:06:56.529Z,1007.57
2018-09-06T02:08:49.516Z,1007.56
2018-09-06T02:09:49.576Z,1007.59
2018-09-06T02:11:42.574Z,1007.61
2018-09-06T02:12:42.639Z,1007.56
2018-09-06T02:14:35.627Z,1007.54
2018-09-06T02:15:35.689Z,1007.47
2018-09-06T02:17:28.689Z,1007.48
2018-09-06T02:18:28.747Z,1007.52
2018-09-06T02:20:21.744Z,1007.57
2018-09-06T02:21:21.806Z,1007.60
2018-09-06T02:23:14.803Z,1007.58
2018-09-06T02:24:14.867Z,1007.54
2018-09-06T02:26:07.855Z,1007.54
2018-09-06T02:27:07.921Z,1007.56
2018-09-06T02:29:00.922Z,1007.57
2018-09-06T02:30:00.983Z,1007.58
2018-09-06T02:31:53.979Z,1007.54
2018-09-06T02:32:54.036Z,1007.52
2018-09-06T02:34:47.023Z,1007.47
2018-09-06T02:35:47.088Z,1007.49
2018-09-06T02:37:40.090Z,1007.45
2018-09-06T02:38:40.149Z,1007.47
2018-09-06T02:40:33.140Z,1007.47
2018-09-06T02:41:33.203Z,1007.45
2018-09-06T02:43:26.208Z,1007.36
2018-09-06T02:44:26.265Z,1007.35
2018-09-06T02:46:19.255Z,1007.35
2018-09-06T02:47:19.319Z,1007.40
2018-09-06T02:49:12.318Z,1007.43
2018-09-06T02:50:12.380Z,1007.40
2018-09-06T02:52:05.378Z,1007.39
2018-09-06T02:53:05.433Z,1007.35
2018-09-06T02:54:58.425Z,1007.28
2018-09-06T02:55:58.488Z,1007.25
2018-09-06T02:57:51.492Z,1007.26
2018-09-06T02:58:51.549Z,1007.27
2018-09-06T03:00:44.541Z,1007.24
2018-09-06T03:01:44.605Z,1007.24
2018-09-06T03:03:37.607Z,1007.22
2018-09-06T03:04:37.662Z,1007.21
2018-09-06T03:06:31.167Z,1007.19
2018-09-06T03:07:31.224Z,1007.19
2018-09-06T03:09:24.218Z,1007.10
2018-09-06T03:10:24.275Z,1007.07
2018-09-06T03:12:17.271Z,1007.13
2018-09-06T03:13:17.327Z,1007.04
2018-09-06T03:15:10.326Z,1006.98
2018-09-06T03:16:10.389Z,1006.94
2018-09-06T03:18:03.391Z,1006.87
2018-09-06T03:19:03.441Z,1006.88
2018-09-06T03:20:56.434Z,1006.84
2018-09-06T03:21:56.498Z,1006.89
2018-09-06T03:23:49.498Z,1006.97
2018-09-06T03:24:49.553Z,1006.94
2018-09-06T03:26:42.544Z,1006.93
2018-09-06T03:27:42.609Z,1007.00
2018-09-06T03:29:35.604Z,1006.95
2018-09-06T03:30:35.662Z,1006.91
2018-09-06T03:32:28.667Z,1006.97
2018-09-06T03:33:28.723Z,1006.93
2018-09-06T03:35:21.714Z,1006.97
2018-09-06T03:36:21.784Z,1006.96
2018-09-06T03:38:14.776Z,1006.94
2018-09-06T03:39:14.831Z,1006.96
2018-09-06T03:41:07.823Z,1006.91
2018-09-06T03:42:07.887Z,1006.94
2018-09-06T03:44:00.886Z,1006.93
2018-09-06T03:45:00.944Z,1006.98
2018-09-06T03:46:53.938Z,1006.99
2018-09-06T03:47:54.003Z,1007.02
2018-09-06T03:49:47.004Z,1007.00
2018-09-06T03:50:47.059Z,1007.03
2018-09-06T03:52:40.059Z,1007.08
2018-09-06T03:53:40.114Z,1007.11
2018-09-06T03:55:33.107Z,1007.09
2018-09-06T03:56:33.167Z,1007.10
2018-09-06T03:58:26.165Z,1007.12
2018-09-06T03:59:26.219Z,1007.12
2018-09-06T04:01:19.214Z,1007.15
2018-09-06T04:02:19.282Z,1007.12
2018-09-06T04:04:12.273Z,1007.07
2018-09-06T04:05:12.327Z,1007.07
2018-09-06T04:07:05.826Z,1007.09
2018-09-06T04:08:05.887Z,1007.14
2018-09-06T04:09:58.886Z,1007.18
2018-09-06T04:10:58.940Z,1007.20
2018-09-06T04:12:51.936Z,1007.23
2018-09-06T04:13:51.993Z,1007.30
2018-09-06T04:15:44.981Z,1007.33
2018-09-06T04:16:45.045Z,1007.33
2018-09-06T04:18:38.090Z,1007.31
2018-09-06T04:19:38.098Z,1007.29
2018-09-06T04:21:31.087Z,1007.33
2018-09-06T04:22:31.148Z,1007.33
2018-09-06T04:24:24.223Z,1007.31
2018-09-06T04:25:24.202Z,1007.28
2018-09-06T04:27:17.188Z,1007.27
2018-09-06T04:28:17.254Z,1007.27
2018-09-06T04:30:10.252Z,1007.25
2018-09-06T04:31:10.307Z,1007.28
2018-09-06T04:33:03.304Z,1007.26
2018-09-06T04:34:03.364Z,1007.29
2018-09-06T04:35:56.419Z,1007.26
2018-09-06T04:36:56.415Z,1007.27
2018-09-06T04:38:49.415Z,1007.24
2018-09-06T04:39:49.476Z,1007.20
2018-09-06T04:41:42.472Z,1007.20
2018-09-06T04:42:42.532Z,1007.19
2018-09-06T04:44:35.531Z,1007.18
2018-09-06T04:45:35.588Z,1007.17
2018-09-06T04:47:28.577Z,1007.18
2018-09-06T04:48:28.643Z,1007.17
2018-09-06T04:50:21.647Z,1007.27
2018-09-06T04:51:21.703Z,1007.25
2018-09-06T04:53:14.701Z,1007.27
2018-09-06T04:54:14.758Z,1007.21
2018-09-06T04:56:07.759Z,1007.19
2018-09-06T04:57:07.819Z,1007.20
2018-09-06T04:59:00.817Z,1007.16
2018-09-06T05:00:00.877Z,1007.13
2018-09-06T05:01:53.872Z,1007.13
2018-09-06T05:02:53.931Z,1007.13
2018-09-06T05:04:46.933Z,1007.16
2018-09-06T05:05:46.989Z,1007.14
2018-09-06T05:07:39.981Z,1007.12
2018-09-06T05:08:40.066Z,1007.13
2018-09-06T05:10:33.045Z,1007.10
2018-09-06T05:11:33.107Z,1007.09
2018-09-06T05:13:26.137Z,1007.13
2018-09-06T05:14:26.164Z,1007.12
2018-09-06T05:16:19.160Z,1007.17
2018-09-06T05:17:19.219Z,1007.23
2018-09-06T05:19:12.218Z,1007.29
2018-09-06T05:20:12.272Z,1007.27
2018-09-06T05:22:05.308Z,1007.27
2018-09-06T05:23:05.333Z,1007.26
2018-09-06T05:24:58.334Z,1007.22
2018-09-06T05:25:58.393Z,1007.16
2018-09-06T05:27:51.391Z,1007.15
2018-09-06T05:28:51.458Z,1007.17
2018-09-06T05:30:44.483Z,1007.14
2018-09-06T05:31:44.510Z,1007.16
2018-09-06T05:33:37.507Z,1007.15
2018-09-06T05:34:37.562Z,1007.17
2018-09-06T05:36:30.596Z,1007.21
2018-09-06T05:37:30.629Z,1007.24
2018-09-06T05:39:23.617Z,1007.27
2018-09-06T05:40:23.672Z,1007.28
2018-09-06T05:42:16.668Z,1007.32
2018-09-06T05:43:16.734Z,1007.33
2018-09-06T05:45:09.732Z,1007.36
2018-09-06T05:46:09.796Z,1007.33
2018-09-06T05:48:02.785Z,1007.31
2018-09-06T05:49:02.850Z,1007.34
2018-09-06T05:50:55.848Z,1007.40
2018-09-06T05:51:55.908Z,1007.40
2018-09-06T05:53:48.915Z,1007.46
2018-09-06T05:54:48.962Z,1007.51
2018-09-06T05:56:41.960Z,1007.53
2018-09-06T05:57:42.023Z,1007.54
2018-09-06T05:59:35.029Z,1007.56
2018-09-06T06:00:35.075Z,1007.57
2018-09-06T06:02:28.075Z,1007.56
2018-09-06T06:03:28.129Z,1007.53
2018-09-06T06:05:21.164Z,1007.56
2018-09-06T06:06:21.192Z,1007.55
2018-09-06T06:08:14.190Z,1007.55
2018-09-06T06:09:14.252Z,1007.57
2018-09-06T06:11:07.248Z,1007.58
2018-09-06T06:12:07.306Z,1007.57
2018-09-06T06:14:00.314Z,1007.59
2018-09-06T06:15:00.367Z,1007.62
2018-09-06T06:16:53.356Z,1007.64
2018-09-06T06:17:53.423Z,1007.64
2018-09-06T06:19:46.423Z,1007.61
2018-09-06T06:20:46.483Z,1007.62
2018-09-06T06:22:39.473Z,1007.61
2018-09-06T06:23:39.535Z,1007.59
2018-09-06T06:25:32.560Z,1007.51
2018-09-06T06:26:32.596Z,1007.55
2018-09-06T06:28:25.590Z,1007.50
2018-09-06T06:29:25.664Z,1007.51
2018-09-06T06:31:18.651Z,1007.53
2018-09-06T06:32:18.763Z,1007.49
2018-09-06T06:34:11.707Z,1007.56
2018-09-06T06:35:11.770Z,1007.56
2018-09-06T06:37:04.769Z,1007.57
2018-09-06T06:38:04.826Z,1007.57
2018-09-06T06:39:57.884Z,1007.56
2018-09-06T06:40:57.882Z,1007.52
2018-09-06T06:42:50.876Z,1007.45
2018-09-06T06:43:50.938Z,1007.45
2018-09-06T06:45:43.960Z,1007.40
2018-09-06T06:46:43.995Z,1007.38
2018-09-06T06:48:36.991Z,1007.35
2018-09-06T06:49:37.053Z,1007.29
2018-09-06T06:51:30.064Z,1007.24
2018-09-06T06:52:30.126Z,1007.38
2018-09-06T06:54:23.129Z,1007.29
2018-09-06T06:55:23.185Z,1007.23
2018-09-06T06:57:16.188Z,1007.21
2018-09-06T06:58:16.248Z,1007.18
2018-09-06T07:00:09.247Z,1007.21
2018-09-06T07:01:09.306Z,1007.22
2018-09-06T07:03:02.298Z,1007.20
2018-09-06T07:04:02.415Z,1007.21
2018-09-06T07:05:55.368Z,1007.23
2018-09-06T07:06:55.459Z,1007.28
2018-09-06T07:08:48.423Z,1007.23
2018-09-06T07:09:48.484Z,1007.25
2018-09-06T07:11:41.484Z,1007.22
2018-09-06T07:12:41.543Z,1007.20
2018-09-06T07:14:34.538Z,1007.13
2018-09-06T07:15:34.607Z,1007.15
2018-09-06T07:17:27.605Z,1007.07
2018-09-06T07:18:27.732Z,1007.08
2018-09-06T07:20:20.665Z,1007.12
2018-09-06T07:21:20.724Z,1007.09
2018-09-06T07:23:13.719Z,1007.02
2018-09-06T07:24:13.785Z,1006.99
2018-09-06T07:26:06.858Z,1006.91
2018-09-06T07:27:06.872Z,1006.88
2018-09-06T07:28:59.863Z,1006.81
2018-09-06T07:29:59.913Z,1006.82
2018-09-06T07:31:52.954Z,1006.83
2018-09-06T07:32:52.994Z,1006.86
2018-09-06T07:34:45.980Z,1006.79
2018-09-06T07:35:46.038Z,1006.75
2018-09-06T07:37:39.022Z,1006.72
2018-09-06T07:38:39.100Z,1006.65
2018-09-06T07:40:32.174Z,1006.71
2018-09-06T07:41:32.242Z,1006.69
2018-09-06T07:43:25.128Z,1006.73
2018-09-06T07:44:25.199Z,1006.77
2018-09-06T07:46:18.273Z,1006.86
2018-09-06T07:47:18.245Z,1006.87
2018-09-06T07:49:11.275Z,1006.90
2018-09-06T07:50:11.397Z,1006.90
2018-09-06T07:52:04.361Z,1006.87
2018-09-06T07:53:04.383Z,1006.83
2018-09-06T07:54:57.391Z,1006.81
2018-09-06T07:55:57.408Z,1006.79
2018-09-06T07:57:50.458Z,1006.78
2018-09-06T07:58:50.468Z,1006.82
2018-09-06T08:00:43.471Z,1006.83
2018-09-06T08:01:43.629Z,1006.83
2018-09-06T08:03:36.546Z,1006.86
2018-09-06T08:04:36.611Z,1006.90
2018-09-06T08:06:30.094Z,1006.91
2018-09-06T08:07:30.180Z,1006.92
2018-09-06T08:09:23.161Z,1006.94
2018-09-06T08:10:23.240Z,1006.95
2018-09-06T08:12:16.319Z,1006.95
2018-09-06T08:13:16.262Z,1006.95
2018-09-06T08:15:09.278Z,1006.97
2018-09-06T08:16:09.335Z,1006.94
2018-09-06T08:18:02.392Z,1006.97
2018-09-06T08:19:02.376Z,1007.02
2018-09-06T08:20:55.421Z,1007.00
2018-09-06T08:21:55.447Z,1007.00
2018-09-06T08:23:48.448Z,1007.01
2018-09-06T08:24:48.515Z,1007.03
2018-09-06T08:26:41.505Z,1007.02
2018-09-06T08:27:41.563Z,1007.02
2018-09-06T08:29:34.573Z,1006.97
2018-09-06T08:30:34.677Z,1006.95
2018-09-06T08:32:27.605Z,1006.92
2018-09-06T08:33:27.664Z,1006.92
2018-09-06T08:35:20.659Z,1006.93
2018-09-06T08:36:20.722Z,1006.95
2018-09-06T08:38:13.722Z,1006.94
2018-09-06T08:39:13.779Z,1006.93
2018-09-06T08:41:06.780Z,1006.97
2018-09-06T08:42:06.837Z,1006.97
2018-09-06T08:43:59.831Z,1007.02
2018-09-06T08:44:59.896Z,1007.01
2018-09-06T08:46:52.896Z,1007.10
2018-09-06T08:47:52.952Z,1007.14
2018-09-06T08:49:45.945Z,1007.08
2018-09-06T08:50:46.012Z,1007.11
2018-09-06T08:52:39.007Z,1007.07
2018-09-06T08:53:39.067Z,1007.04
2018-09-06T08:55:32.059Z,1007.05
2018-09-06T08:56:32.124Z,1007.02
2018-09-06T08:58:25.180Z,1007.06
2018-09-06T08:59:25.178Z,1007.13
2018-09-06T09:01:18.181Z,1007.09
2018-09-06T09:02:18.310Z,1007.13
2018-09-06T09:04:11.236Z,1007.11
2018-09-06T09:05:11.297Z,1007.10
2018-09-06T09:07:04.806Z,1007.05
2018-09-06T09:08:04.863Z,1007.04
2018-09-06T09:09:57.854Z,1007.06
2018-09-06T09:10:57.920Z,1007.10
2018-09-06T09:12:50.925Z,1007.06
2018-09-06T09:13:50.977Z,1007.05
2018-09-06T09:15:43.974Z,1007.02
2018-09-06T09:16:44.036Z,1007.06
2018-09-06T09:18:37.036Z,1007.10
2018-09-06T09:19:37.097Z,1007.12
2018-09-06T09:21:30.118Z,1007.15
2018-09-06T09:22:30.153Z,1007.12
2018-09-06T09:24:23.145Z,1007.12
2018-09-06T09:25:23.223Z,1007.14
2018-09-06T09:27:16.262Z,1007.10
2018-09-06T09:28:16.268Z,1007.13
2018-09-06T09:30:09.260Z,1007.14
2018-09-06T09:31:09.323Z,1007.13
2018-09-06T09:33:02.322Z,1007.13
2018-09-06T09:34:02.384Z,1007.13
2018-09-06T09:35:55.401Z,1007.09
2018-09-06T09:36:55.435Z,1007.08
2018-09-06T09:38:48.436Z,1007.09
2018-09-06T09:39:48.494Z,1007.10
2018-09-06T09:41:41.491Z,1007.11
2018-09-06T09:42:41.552Z,1007.11
2018-09-06T09:44:34.540Z,1007.10
2018-09-06T09:45:34.604Z,1007.09
2018-09-06T09:47:48.644Z,1007.08
2018-09-06T09:49:20.591Z,1007.02
2018-09-06T09:51:32.962Z,1007.02
2018-09-06T09:52:33.022Z,1007.00
2018-09-06T09:54:26.013Z,1006.95
2018-09-06T09:55:26.078Z,1006.96
2018-09-06T09:57:19.074Z,1006.95
2018-09-06T09:58:19.131Z,1006.92
2018-09-06T10:00:12.122Z,1006.92
2018-09-06T10:01:12.185Z,1006.87
2018-09-06T10:03:05.184Z,1006.84
2018-09-06T10:04:05.239Z,1006.83
2018-09-06T10:05:58.236Z,1006.80
2018-09-06T10:06:58.297Z,1006.86
2018-09-06T10:08:51.298Z,1006.80
2018-09-06T10:09:51.352Z,1006.82
2018-09-06T10:11:44.351Z,1006.80
2018-09-06T10:12:44.407Z,1006.77
2018-09-06T10:14:37.399Z,1006.71
2018-09-06T10:15:37.461Z,1006.71
2018-09-06T10:17:30.465Z,1006.72
2018-09-06T10:18:30.521Z,1006.73
2018-09-06T10:20:23.510Z,1006.75
2018-09-06T10:21:23.576Z,1006.74
2018-09-06T10:23:16.573Z,1006.74
2018-09-06T10:24:16.629Z,1006.82
2018-09-06T10:26:09.621Z,1006.80
2018-09-06T10:27:09.685Z,1006.78
2018-09-06T10:29:02.687Z,1006.79
2018-09-06T10:30:02.749Z,1006.86
2018-09-06T10:31:55.734Z,1006.84
2018-09-06T10:32:55.799Z,1006.85
2018-09-06T10:34:48.801Z,1006.88
2018-09-06T10:35:48.853Z,1006.88
2018-09-06T10:37:41.853Z,1006.85
2018-09-06T10:38:41.912Z,1006.82
2018-09-06T10:40:34.970Z,1006.84
2018-09-06T10:41:34.964Z,1006.83
2018-09-06T10:43:27.963Z,1006.85
2018-09-06T10:44:28.080Z,1006.82
2018-09-06T10:46:21.014Z,1006.86
2018-09-06T10:47:21.078Z,1006.84
2018-09-06T10:49:14.079Z,1006.82
2018-09-06T10:50:14.136Z,1006.87
2018-09-06T10:52:07.128Z,1006.82
2018-09-06T10:53:07.194Z,1006.85
2018-09-06T10:55:00.191Z,1006.84
2018-09-06T10:56:00.246Z,1006.83
2018-09-06T10:57:53.263Z,1006.83
2018-09-06T10:58:53.305Z,1006.82
2018-09-06T11:00:46.452Z,1006.80
2018-09-06T11:01:46.364Z,1006.79
2018-09-06T11:03:39.365Z,1006.74
2018-09-06T11:04:39.423Z,1006.80
2018-09-06T11:06:32.923Z,1006.78
2018-09-06T11:07:32.985Z,1006.73
2018-09-06T11:09:25.984Z,1006.71
2018-09-06T11:10:26.032Z,1006.73
2018-09-06T11:12:19.040Z,1006.76
2018-09-06T11:13:19.099Z,1006.79
2018-09-06T11:15:12.099Z,1006.74
2018-09-06T11:16:12.154Z,1006.73
2018-09-06T11:18:05.192Z,1006.75
2018-09-06T11:19:05.210Z,1006.78
2018-09-06T11:20:58.229Z,1006.80
2018-09-06T11:21:58.380Z,1006.80
2018-09-06T11:23:51.274Z,1006.84
2018-09-06T11:24:51.323Z,1006.84
2018-09-06T11:26:44.319Z,1006.86
2018-09-06T11:27:44.400Z,1006.85
2018-09-06T11:29:37.379Z,1006.90
2018-09-06T11:30:37.437Z,1006.88
2018-09-06T11:32:30.429Z,1006.87
2018-09-06T11:33:30.492Z,1006.91
2018-09-06T11:35:23.492Z,1006.86
2018-09-06T11:36:23.554Z,1006.85
2018-09-06T11:38:16.560Z,1006.84
2018-09-06T11:39:16.612Z,1006.87
2018-09-06T11:41:09.605Z,1006.87
2018-09-06T11:42:09.668Z,1006.88
2018-09-06T11:44:02.682Z,1006.91
2018-09-06T11:45:02.741Z,1006.95
2018-09-06T11:46:55.814Z,1006.91
2018-09-06T11:47:55.824Z,1006.90
2018-09-06T11:49:48.808Z,1006.89
2018-09-06T11:50:48.847Z,1006.90
2018-09-06T11:52:41.840Z,1006.90
2018-09-06T11:53:41.905Z,1006.90
2018-09-06T11:55:34.902Z,1006.90
2018-09-06T11:56:34.955Z,1006.88
2018-09-06T11:58:27.955Z,1006.90
2018-09-06T11:59:28.012Z,1006.88
2018-09-06T12:01:21.006Z,1006.78
2018-09-06T12:02:21.067Z,1006.80
2018-09-06T12:04:14.065Z,1006.79
2018-09-06T12:05:14.125Z,1006.78
2018-09-06T12:07:07.122Z,1006.83
2018-09-06T12:08:07.179Z,1006.85
2018-09-06T12:10:00.181Z,1006.86
2018-09-06T12:11:00.232Z,1006.88
2018-09-06T12:12:53.235Z,1006.84
2018-09-06T12:13:53.373Z,1006.88
2018-09-06T12:15:46.292Z,1006.88
2018-09-06T12:16:46.359Z,1006.86
2018-09-06T12:18:39.357Z,1006.85
2018-09-06T12:19:39.414Z,1006.84
2018-09-06T12:21:32.431Z,1006.85
2018-09-06T12:22:32.468Z,1006.86
2018-09-06T12:24:25.477Z,1006.85
2018-09-06T12:25:25.633Z,1006.88
2018-09-06T12:27:18.518Z,1006.87
2018-09-06T12:28:18.580Z,1006.84
2018-09-06T12:30:11.590Z,1006.87
2018-09-06T12:31:11.662Z,1006.82
2018-09-06T12:33:04.675Z,1006.81
2018-09-06T12:34:04.708Z,1006.82
2018-09-06T12:35:57.710Z,1006.82
2018-09-06T12:36:57.763Z,1006.81
2018-09-06T12:38:50.763Z,1006.78
2018-09-06T12:39:50.821Z,1006.76
2018-09-06T12:41:43.813Z,1006.76
2018-09-06T12:42:43.877Z,1006.76
2018-09-06T12:44:36.879Z,1006.69
2018-09-06T12:45:36.976Z,1006.73
2018-09-06T12:47:29.928Z,1006.71
2018-09-06T12:48:29.993Z,1006.64
2018-09-06T12:50:22.990Z,1006.61
2018-09-06T12:51:23.048Z,1006.60
2018-09-06T12:53:16.061Z,1006.61
2018-09-06T12:54:16.124Z,1006.59
2018-09-06T12:56:09.128Z,1006.56
2018-09-06T12:57:09.184Z,1006.55
2018-09-06T12:59:02.182Z,1006.54
2018-09-06T13:00:02.240Z,1006.52
2018-09-06T13:01:55.742Z,1006.53
2018-09-06T13:02:55.803Z,1006.56
2018-09-06T13:04:48.800Z,1006.57
2018-09-06T13:05:48.857Z,1006.52
2018-09-06T13:07:41.857Z,1006.52
2018-09-06T13:08:41.916Z,1006.50
2018-09-06T13:10:35.070Z,1006.49
2018-09-06T13:11:34.974Z,1006.50
2018-09-06T13:13:27.971Z,1006.48
2018-09-06T13:14:28.131Z,1006.53
2018-09-06T13:16:21.051Z,1006.53
2018-09-06T13:17:21.113Z,1006.51
2018-09-06T13:19:14.171Z,1006.47
2018-09-06T13:20:14.169Z,1006.44
2018-09-06T13:22:07.162Z,1006.46
2018-09-06T13:23:07.225Z,1006.45
2018-09-06T13:25:00.226Z,1006.43
2018-09-06T13:26:00.284Z,1006.40
2018-09-06T13:27:53.277Z,1006.32
2018-09-06T13:28:53.341Z,1006.33
2018-09-06T13:30:46.341Z,1006.38
2018-09-06T13:31:46.395Z,1006.40
2018-09-06T13:33:39.391Z,1006.43
2018-09-06T13:34:39.454Z,1006.38
2018-09-06T13:36:32.455Z,1006.33
2018-09-06T13:37:32.510Z,1006.32
2018-09-06T13:39:25.515Z,1006.34
2018-09-06T13:40:25.573Z,1006.26
2018-09-06T13:42:18.574Z,1006.21
2018-09-06T13:43:18.641Z,1006.17
2018-09-06T13:45:11.644Z,1006.16
2018-09-06T13:46:11.699Z,1006.14
2018-09-06T13:48:04.701Z,1006.09
2018-09-06T13:49:04.764Z,1006.07
2018-09-06T13:50:57.765Z,1006.05
2018-09-06T13:51:57.821Z,1006.02
2018-09-06T13:53:50.843Z,1005.94
2018-09-06T13:54:50.882Z,1005.94
2018-09-06T13:56:43.882Z,1005.94
2018-09-06T13:57:43.941Z,1005.90
2018-09-06T13:59:36.943Z,1005.91
2018-09-06T14:00:37.002Z,1005.89
2018-09-06T14:02:29.994Z,1005.88
2018-09-06T14:03:30.083Z,1005.89
2018-09-06T14:05:23.058Z,1005.90
2018-09-06T14:06:23.117Z,1005.92
2018-09-06T14:08:16.115Z,1005.90
2018-09-06T14:09:16.179Z,1005.84
2018-09-06T14:11:09.181Z,1005.82
2018-09-06T14:12:09.243Z,1005.81
2018-09-06T14:14:02.235Z,1005.79
2018-09-06T14:15:02.301Z,1005.82
2018-09-06T14:16:55.336Z,1005.78
2018-09-06T14:17:55.361Z,1005.80
2018-09-06T14:19:48.366Z,1005.76
2018-09-06T14:20:48.421Z,1005.79
2018-09-06T14:22:41.420Z,1005.77
2018-09-06T14:23:41.481Z,1005.78
2018-09-06T14:25:34.490Z,1005.77
2018-09-06T14:26:34.550Z,1005.77
2018-09-06T14:28:27.553Z,1005.78
2018-09-06T14:29:27.616Z,1005.76
2018-09-06T14:31:20.613Z,1005.76
2018-09-06T14:32:20.667Z,1005.76
2018-09-06T14:34:13.662Z,1005.72
2018-09-06T14:35:13.724Z,1005.70
2018-09-06T14:37:06.725Z,1005.69
2018-09-06T14:38:06.836Z,1005.71
2018-09-06T14:39:59.784Z,1005.70
2018-09-06T14:40:59.866Z,1005.70
2018-09-06T14:42:53.745Z,1005.66
2018-09-06T14:43:53.852Z,1005.64
2018-09-06T14:45:46.811Z,1005.60
2018-09-06T14:46:46.871Z,1005.58
2018-09-06T14:48:39.866Z,1005.60
2018-09-06T14:49:39.930Z,1005.60
2018-09-06T14:51:32.932Z,1005.59
2018-09-06T14:52:32.988Z,1005.60
2018-09-06T14:54:25.983Z,1005.56
2018-09-06T14:55:26.049Z,1005.60
2018-09-06T14:57:19.086Z,1005.58
2018-09-06T14:58:19.109Z,1005.55
2018-09-06T15:00:12.104Z,1005.49
2018-09-06T15:01:12.163Z,1005.48
2018-09-06T15:03:05.166Z,1005.43
2018-09-06T15:04:05.224Z,1005.42
2018-09-06T15:05:58.223Z,1005.41
2018-09-06T15:06:58.282Z,1005.42
2018-09-06T15:08:51.807Z,1005.43
2018-09-06T15:09:51.468Z,1005.38
2018-09-06T15:11:44.417Z,1005.36
2018-09-06T15:12:44.478Z,1005.33
2018-09-06T15:14:37.473Z,1005.35
2018-09-06T15:15:37.540Z,1005.33
2018-09-06T15:17:30.541Z,1005.30
2018-09-06T15:18:30.598Z,1005.26
2018-09-06T15:20:23.599Z,1005.24
2018-09-06T15:21:23.656Z,1005.20
2018-09-06T15:23:16.648Z,1005.16
2018-09-06T15:24:16.717Z,1005.16
2018-09-06T15:26:09.715Z,1005.09
2018-09-06T15:27:09.772Z,1005.07
2018-09-06T15:29:02.764Z,1005.06
2018-09-06T15:30:02.827Z,1005.02
2018-09-06T15:31:55.827Z,1005.03
2018-09-06T15:32:55.889Z,1005.03
2018-09-06T15:34:48.881Z,1005.06
2018-09-06T15:35:48.943Z,1005.03
2018-09-06T15:37:41.949Z,1005.05
2018-09-06T15:38:42.019Z,1005.03
2018-09-06T15:40:35.009Z,1005.00
2018-09-06T15:41:35.068Z,1004.95
2018-09-06T15:43:28.082Z,1004.91
2018-09-06T15:44:28.127Z,1004.93
2018-09-06T15:46:21.131Z,1004.92
2018-09-06T15:47:21.186Z,1004.92
2018-09-06T15:49:14.183Z,1004.96
2018-09-06T15:50:14.247Z,1004.96
2018-09-06T15:52:07.247Z,1004.95
2018-09-06T15:53:07.307Z,1004.92
2018-09-06T15:55:00.306Z,1004.86
2018-09-06T15:56:00.367Z,1004.82
2018-09-06T15:57:53.366Z,1004.80
2018-09-06T15:58:53.427Z,1004.81
2018-09-06T16:00:46.442Z,1004.79
2018-09-06T16:01:46.493Z,1004.82
2018-09-06T16:03:39.477Z,1004.81
2018-09-06T16:04:39.542Z,1004.85
2018-09-06T16:06:32.545Z,1004.89
2018-09-06T16:07:32.608Z,1004.92
2018-09-06T16:09:25.604Z,1004.89
2018-09-06T16:10:25.666Z,1004.91
2018-09-06T16:12:18.704Z,1004.86
2018-09-06T16:13:18.723Z,1004.89
2018-09-06T16:15:11.723Z,1004.91
2018-09-06T16:16:11.796Z,1004.92
2018-09-06T16:18:04.779Z,1004.97
2018-09-06T16:19:04.838Z,1004.99
2018-09-06T16:20:57.862Z,1005.00
2018-09-06T16:21:57.903Z,1005.01
2018-09-06T16:23:50.888Z,1005.03
2018-09-06T16:24:50.954Z,1004.99
2018-09-06T16:26:43.953Z,1004.98
2018-09-06T16:27:44.013Z,1004.98
2018-09-06T16:29:37.003Z,1005.01
2018-09-06T16:30:37.068Z,1005.00
2018-09-06T16:32:30.067Z,1005.00
2018-09-06T16:33:30.125Z,1004.98
2018-09-06T16:35:23.118Z,1004.99
2018-09-06T16:36:23.186Z,1004.98
2018-09-06T16:38:16.180Z,1004.95
2018-09-06T16:39:16.237Z,1004.94
2018-09-06T16:41:09.241Z,1004.95
2018-09-06T16:42:09.302Z,1004.93
2018-09-06T16:44:02.288Z,1004.88
2018-09-06T16:45:02.353Z,1004.89
2018-09-06T16:46:55.352Z,1004.89
2018-09-06T16:47:55.416Z,1004.89
2018-09-06T16:49:48.423Z,1004.92
2018-09-06T16:50:48.561Z,1004.91
2018-09-06T16:52:41.468Z,1004.91
2018-09-06T16:53:41.524Z,1004.87
2018-09-06T16:55:34.552Z,1004.93
2018-09-06T16:56:34.618Z,1004.97
2018-09-06T16:58:27.616Z,1004.96
2018-09-06T16:59:27.673Z,1004.96
2018-09-06T17:01:21.181Z,1004.94
2018-09-06T17:02:21.238Z,1004.93
2018-09-06T17:04:14.244Z,1004.84
2018-09-06T17:05:14.301Z,1004.86
2018-09-06T17:07:07.299Z,1004.87
2018-09-06T17:08:07.357Z,1004.88
2018-09-06T17:10:00.356Z,1004.86
2018-09-06T17:11:00.418Z,1004.85
2018-09-06T17:12:53.418Z,1004.92
2018-09-06T17:13:53.474Z,1004.93
2018-09-06T17:15:46.464Z,1004.95
2018-09-06T17:16:46.528Z,1005.02
2018-09-06T17:18:39.532Z,1005.00
2018-09-06T17:19:39.589Z,1005.03
2018-09-06T17:21:32.578Z,1004.97
2018-09-06T17:22:32.641Z,1004.96
2018-09-06T17:24:25.642Z,1004.98
2018-09-06T17:25:25.699Z,1004.97
2018-09-06T17:27:18.700Z,1004.99